Whites Creek, Tennessee
Current Conditions -  °F | °C
As of 3:53 AM on Sunday 23 Nov 2014 (Local Time) from KBNA Reporting Station
Overcast Overcast  
Wind Chill: 54°   Ceiling: 4100
Heat Index: 54°   Visibility: 10mi
Dew Point: 39°   Wind: 6mph
Humidity: 57%   Direction: 80°E
Pressure: 29.95"   Gusts: NA
Location:  36.27°N, 86.83°W
Report Text: KBNA 230953Z 08005KT 10SM OVC041 12/04 A2995 RMK AO2 SLP140 T01220039
Loading
Personal Weather Stations






























Interactive Weather Map New forecast layout! Learn more

10-Day Weather Forecast

Advertisements
Track Severe Weather on mobile